Accueil
METAR-TAF:

METAR-TAF

Aéroports :

Amman, Jordanie

Aéroport civil d'Amman

latitude: 31-59N, longitude: 035-59E, altitude: 767 m

Observation

Le bulletin a été fait il y a 35 minutes, à 03:00 UTC
Vent 4 kt de nord-ouest
Température 16°C
Humidité 39%
Pression 1015 hPa
Visibilité: 6000 m
Nuages épars à une hauteur de 3500 ft
Nuages épars à une hauteur de 20000 ft

METAR: OJAM 260300Z 31004KT 6000 SCT035 SCT200 16/02 Q1015 NOSIG

Heure: 06:35 (03:35 UTC)

Prévision

Le bulletin a été fait il y a 4 heures et 35 minutes, à 23:00 UTC
Prévision valable du 26 à 00 UTC au 27 à 06 UTC
Vent 4 kt de ouest
Visibilité: 6000 m
Temporairement
du 26 à 10 UTC au 26 à 15 UTC
Vent 15 kt de ouest/nord-ouest
Visibilité: 4000 m
Chasse-poussière élevée

TAF: OJAM 252300Z 2600/2706 28004KT 6000 NSC TEMPO 2610/2615 30015KT 4000 BLDU

Observations et prévisions météorologiques de plus de 4000 aéroports (messages METAR et TAF).

Les stations disponibles sont représentées par des disques jaunes et rouges sur la carte.

Passer la souris dessus pour voir le nom de la station.

Cliquer dessus pour voir les observations et prévisions météorologiques.

Pour changer de carte: cliquez sur les boutons verts avec une croix noire pour zoomer, sur le bouton vert avec un tiret pour effectuer un zoom arrière, ou sur les flèches vertes pour les cartes adjacentes.


METAR-TAF: